首页
METAR-TAF:

METAR-TAF

机场 :

Richard Lloyd Jones Jr. Airport

塔爾薩, 奧克拉荷馬州, 美国

纬度: 36-02-33N, 经度: 095-59-22W, 海拔: 194米

当前天气观测

该预报发布于47分钟前的15:53 UTC
风速8节,风向东北
温度 26°C
湿度 65%
气压 1018 hPa
能見度: 16.1公里
少量云层高于2100英尺
散云层高于6500英尺

METAR: KRVS 221553Z 04008KT 10SM FEW021 SCT065 26/19 A3007 RMK AO2 SLP185 T02610194

时间: 11:40 (16:40 UTC)

预报

该预报发布于2小时和57分钟前的13:43 UTC
预报有效从22日的 14点(UTC)到 23日的 12点(UTC)
风速6节,风向北转东北
能見度: 10公里
散云层高于4000英尺
多云层高于12000英尺
从 22日的 1600点(UTC)
风速4节,风向多变
能見度: 10公里
散云层高于4000英尺
多云层高于25000英尺

TAF: KRVS 221343Z 2214/2312 03006KT P6SM SCT040 BKN120 FM221600 VRB04KT P6SM SCT040 BKN250

超过4000个机场的气象观测和天气预报(METAR&TAF报告)。

可查询的气象台以黄色和红色小点在地图上表示。

将鼠标移到小点上方,可查看气象台名称。

然后点击查看天气观测和预报。

如需切换地图:点击带黑十字的绿色按钮放大地图;点击带横线的绿色按钮缩小地图;或者点击绿色箭头查看邻近地区的地图。


METAR-TAF: